Terminal Aerodrome Forecast
Issued by NWS Sterling, VA

Current Version | Previous Version | Graphics & Text | Print | Product List | Glossary On
Versions: 1 2 3 4 5 6 7 8 9 10 11 12 13 14 15 16 17 18
000
FTUS41 KLWX 222020 AAA
TAFMRB
TAF AMD
KMRB 222020Z 2220/2318 24006KT P6SM SCT050 BKN100
     FM230600 VRB03KT 3SM BR SCT050 BKN130
     FM231200 31007KT P6SM SCT040 SCT250
     FM231400 33010KT P6SM SCT035 SCT250=

USA.gov is the U.S. government's official web portal to all federal, state and local government web resources and services.